Time;durP1;ratioP1;P1;durP2;ratioP2;P2;SDS_P1;SDS_P2;PMS_P1;PMS_P2;Temp;Humidity;BMP_temperature;BMP_pressure;BME280_temperature;BME280_humidity;BME280_pressure;Samples;Min_cycle;Max_cycle;Signal;HPM_P1;HPM_P2
2023/09/13 00:00:34;;;;;;;;;;;;;;;23.04;52.73;98647.86;67804;1278;1016458;-67
2023/09/13 00:03:57;;;;;;;29.50;15.20;;;;;;;22.98;52.72;98645.33;67826;1278;1016079;-67
2023/09/13 00:06:59;;;;;;;30.10;14.70;;;;;;;22.96;53.10;98637.85;67771;1278;1016818;-66
2023/09/13 00:10:01;;;;;;;;;;;;;;;22.95;53.29;98635.19;67789;1278;1016430;-64
2023/09/13 00:13:04;;;;;;;30.60;15.90;;;;;;;22.72;53.70;98636.19;67800;1278;1017786;-66
2023/09/13 00:16:06;;;;;;;;;;;;;;;22.65;53.49;98630.20;67824;1278;1016114;-66
2023/09/13 00:19:09;;;;;;;35.50;17.10;;;;;;;22.76;53.25;98630.88;67814;1278;1016155;-66
2023/09/13 00:22:12;;;;;;;32.30;15.90;;;;;;;22.57;53.86;98634.91;67755;1278;1016282;-66
2023/09/13 00:25:15;;;;;;;33.80;15.20;;;;;;;22.44;54.11;98634.70;67863;1278;1016017;-65
2023/09/13 00:28:17;;;;;;;;;;;;;;;22.39;54.10;98636.23;67840;1278;1015933;-67
2023/09/13 00:31:19;;;;;;;30.00;16.00;;;;;;;22.28;54.28;98635.41;67786;1278;1016261;-67
2023/09/13 00:34:22;;;;;;;;;;;;;;;22.19;54.54;98636.33;67797;1278;1016289;-67
2023/09/13 00:37:24;;;;;;;30.30;16.30;;;;;;;22.12;54.70;98636.58;67770;1278;1016324;-66
2023/09/13 00:40:27;;;;;;;31.10;16.40;;;;;;;22.11;54.74;98638.75;67820;1278;1016464;-67
2023/09/13 00:43:29;;;;;;;;;;;;;;;22.26;54.49;98637.67;67816;1278;1016339;-66
2023/09/13 00:46:31;;;;;;;33.80;17.50;;;;;;;22.18;54.97;98637.80;67800;1278;1016497;-66
2023/09/13 00:49:34;;;;;;;;;;;;;;;22.19;54.91;98634.89;67800;1278;1016536;-67
2023/09/13 00:52:36;;;;;;;35.00;17.70;;;;;;;22.10;55.23;98632.45;67794;1278;1016476;-66
2023/09/13 00:55:38;;;;;;;36.00;18.00;;;;;;;22.08;55.33;98633.46;67802;1278;1016387;-67
2023/09/13 00:58:41;;;;;;;32.60;17.60;;;;;;;22.18;55.15;98631.95;67730;1278;1016472;-67
2023/09/13 01:01:43;;;;;;;;;;;;;;;22.31;54.90;98632.41;67852;1278;1016421;-66
2023/09/13 01:04:46;;;;;;;32.30;17.30;;;;;;;22.40;54.63;98628.58;67750;1278;1018458;-67
2023/09/13 01:07:49;;;;;;;34.20;17.60;;;;;;;22.43;54.38;98628.27;67837;1278;1016253;-67
2023/09/13 01:10:51;;;;;;;33.60;17.80;;;;;;;22.43;54.55;98625.60;67812;1278;1016147;-66
2023/09/13 01:13:54;;;;;;;;;;;;;;;22.40;54.75;98629.48;67839;1278;1016543;-67
2023/09/13 01:16:56;;;;;;;43.90;27.50;;;;;;;22.42;54.80;98629.95;67732;1278;1016574;-67
2023/09/13 01:19:58;;;;;;;38.50;21.40;;;;;;;22.48;54.63;98629.18;67770;1278;1016359;-67
2023/09/13 01:23:02;;;;;;;;;;;;;;;22.54;54.32;98625.41;67795;1278;1016403;-67
2023/09/13 01:26:04;;;;;;;35.20;18.60;;;;;;;22.52;54.60;98623.17;67761;1278;1016291;-66
2023/09/13 01:29:08;;;;;;;;;;;;;;;22.52;54.51;98625.85;67733;1278;1016140;-67
2023/09/13 01:32:10;;;;;;;32.10;17.40;;;;;;;22.44;54.49;98626.48;67782;1278;1016367;-67
2023/09/13 01:35:13;;;;;;;;;;;;;;;22.37;54.62;98623.38;67786;1278;1016341;-67
2023/09/13 01:38:15;;;;;;;38.10;19.40;;;;;;;22.34;54.86;98623.95;67805;1278;1016486;-66
2023/09/13 01:41:18;;;;;;;;;;;;;;;22.26;55.13;98625.98;67809;1278;1016435;-67
2023/09/13 01:44:20;;;;;;;36.90;21.00;;;;;;;22.17;55.53;98628.63;67861;1278;1016431;-65
2023/09/13 01:47:22;;;;;;;;;;;;;;;22.17;55.58;98622.63;67771;1278;1016487;-66
2023/09/13 01:50:25;;;;;;;35.40;19.30;;;;;;;22.07;56.01;98623.26;67782;1278;1016492;-66
2023/09/13 01:53:27;;;;;;;34.20;18.60;;;;;;;22.08;55.40;98620.27;67702;1278;1016183;-67
2023/09/13 01:56:29;;;;;;;;;;;;;;;22.07;55.33;98621.05;67801;1278;1016425;-67
2023/09/13 01:59:32;;;;;;;35.60;18.10;;;;;;;22.04;55.30;98620.92;67784;1278;1016186;-67
2023/09/13 02:02:34;;;;;;;;;;;;;;;22.01;55.24;98618.89;67812;1278;1016310;-67
2023/09/13 02:05:37;;;;;;;34.90;18.80;;;;;;;22.04;55.15;98619.29;67774;1278;1017785;-66
2023/09/13 02:08:39;;;;;;;;;;;;;;;22.10;55.20;98617.77;67726;1278;1016382;-67
2023/09/13 02:11:41;;;;;;;36.90;18.90;;;;;;;22.06;55.50;98618.66;67740;1278;1015952;-67
2023/09/13 02:14:44;;;;;;;37.90;21.30;;;;;;;22.06;55.48;98617.58;67849;1278;1016182;-65
2023/09/13 02:17:46;;;;;;;;;;;;;;;22.07;55.95;98621.64;67824;1277;1016909;-66
2023/09/13 02:20:49;;;;;;;39.50;20.20;;;;;;;22.07;56.06;98620.13;67771;1278;1016658;-67
2023/09/13 02:23:53;;;;;;;39.10;19.50;;;;;;;21.93;56.11;98621.05;67763;1278;1016428;-66
2023/09/13 02:26:56;;;;;;;33.70;18.50;;;;;;;21.98;55.79;98620.14;67808;1278;1016515;-67
2023/09/13 02:29:58;;;;;;;32.50;16.70;;;;;;;22.00;55.37;98618.99;67813;1278;1018535;-67
2023/09/13 02:33:01;;;;;;;;;;;;;;;22.02;55.11;98619.36;67799;1278;1016309;-67
2023/09/13 02:36:04;;;;;;;24.40;11.50;;;;;;;21.90;55.24;98616.86;67756;1278;1016474;-66
2023/09/13 02:39:06;;;;;;;;;;;;;;;21.78;55.41;98613.55;67824;1278;1016059;-67
2023/09/13 02:42:08;;;;;;;36.50;19.50;;;;;;;21.81;55.69;98613.64;67814;1278;1016470;-67
2023/09/13 02:45:12;;;;;;;34.20;18.40;;;;;;;21.90;55.46;98610.19;67787;1278;1016486;-67
2023/09/13 02:48:14;;;;;;;34.90;18.20;;;;;;;21.93;55.33;98611.21;67835;1278;1016523;-66
2023/09/13 02:51:16;;;;;;;;;;;;;;;21.96;55.22;98607.36;67768;1278;1016166;-67
2023/09/13 02:54:20;;;;;;;32.10;18.40;;;;;;;21.97;55.18;98606.81;67795;1277;1016533;-67
2023/09/13 02:57:22;;;;;;;35.00;18.40;;;;;;;22.06;55.26;98605.33;67818;1278;1016466;-67
2023/09/13 03:00:24;;;;;;;;;;;;;;;22.10;55.08;98602.73;67832;1278;1018961;-65
2023/09/13 03:03:27;;;;;;;37.60;19.10;;;;;;;22.05;54.98;98597.82;67736;1278;1016526;-67
2023/09/13 03:06:30;;;;;;;;;;;;;;;22.00;55.05;98602.67;67784;1278;1016396;-66
2023/09/13 03:09:33;;;;;;;37.80;18.70;;;;;;;22.01;55.16;98601.67;67827;1278;1016477;-67
2023/09/13 03:12:35;;;;;;;36.60;18.20;;;;;;;21.92;55.26;98596.92;67747;1278;1016458;-67
2023/09/13 03:15:38;;;;;;;;;;;;;;;21.85;55.30;98595.58;67721;1278;1016216;-67
2023/09/13 03:18:40;;;;;;;35.70;17.50;;;;;;;21.79;55.40;98597.06;67824;1278;1018995;-67
2023/09/13 03:21:42;;;;;;;;;;;;;;;21.73;55.27;98594.71;67867;1278;1016458;-67
2023/09/13 03:24:45;;;;;;;35.70;19.20;;;;;;;21.69;55.46;98591.45;67808;1278;1016399;-66
2023/09/13 03:27:47;;;;;;;;;;;;;;;21.70;55.41;98592.92;67805;1278;1016423;-67
2023/09/13 03:30:50;;;;;;;30.90;15.60;;;;;;;21.70;55.65;98593.48;67773;1278;1016185;-66
2023/09/13 03:33:52;;;;;;;;;;;;;;;21.64;55.53;98593.07;67797;1278;1016269;-66
2023/09/13 03:36:55;;;;;;;34.50;16.60;;;;;;;21.64;55.57;98595.17;67813;1278;1016193;-66
2023/09/13 03:39:57;;;;;;;32.60;17.00;;;;;;;21.62;55.49;98591.84;67771;1278;1016431;-67
2023/09/13 03:43:00;;;;;;;;;;;;;;;21.64;55.22;98589.36;67800;1278;1016476;-67
2023/09/13 03:46:03;;;;;;;37.10;17.60;;;;;;;21.55;55.59;98585.44;67778;1278;1017931;-66
2023/09/13 03:49:06;;;;;;;34.10;17.60;;;;;;;21.57;55.56;98582.08;67775;1278;1016673;-66
2023/09/13 03:52:08;;;;;;;33.30;17.90;;;;;;;21.60;55.70;98585.01;67820;1278;1018239;-67
2023/09/13 03:55:11;;;;;;;32.40;16.50;;;;;;;21.58;55.57;98582.34;67824;1278;1016374;-67
2023/09/13 03:58:13;;;;;;;;;;;;;;;21.57;55.72;98586.24;67788;1278;1016670;-67
2023/09/13 04:01:16;;;;;;;39.60;22.10;;;;;;;21.57;55.81;98586.91;67745;1278;1015794;-67
2023/09/13 04:04:18;;;;;;;;;;;;;;;21.48;56.53;98583.10;67801;1278;1016634;-67
2023/09/13 04:07:21;;;;;;;39.20;22.00;;;;;;;21.45;56.53;98584.27;67841;1278;1016564;-67
2023/09/13 04:10:24;;;;;;;36.70;19.80;;;;;;;21.54;56.22;98584.20;67776;1278;1016435;-66
2023/09/13 04:13:26;;;;;;;;;;;;;;;21.58;55.89;98583.00;67794;1278;1016469;-67
2023/09/13 04:16:28;;;;;;;36.40;19.20;;;;;;;21.51;56.00;98585.41;67791;1278;1016286;-67
2023/09/13 04:19:31;;;;;;;36.70;20.60;;;;;;;21.40;56.49;98584.28;67855;1278;1017217;-67
2023/09/13 04:22:33;;;;;;;;;;;;;;;21.41;56.72;98583.84;67794;1278;1016251;-67
2023/09/13 04:25:36;;;;;;;38.00;21.90;;;;;;;21.44;57.30;98582.20;67798;1278;1016288;-66
2023/09/13 04:28:39;;;;;;;37.80;21.00;;;;;;;21.46;57.02;98580.10;67845;1278;1016449;-67
2023/09/13 04:31:41;;;;;;;;;;;;;;;21.49;57.47;98583.38;67820;1278;1016785;-66
2023/09/13 04:34:46;;;;;;;39.00;22.30;;;;;;;21.47;58.13;98585.11;67779;1278;1016494;-66
2023/09/13 04:37:48;;;;;;;41.70;23.10;;;;;;;21.45;58.44;98585.34;67781;1278;1016146;-67
2023/09/13 04:40:50;;;;;;;;;;;;;;;21.59;57.98;98588.23;67833;1278;1016712;-67
2023/09/13 04:43:53;;;;;;;30.20;17.00;;;;;;;21.69;57.49;98584.05;67815;1278;1016457;-67
2023/09/13 04:46:55;;;;;;;;;;;;;;;21.69;57.37;98581.48;67859;1278;1016439;-66
2023/09/13 04:49:58;;;;;;;37.60;20.90;;;;;;;21.76;57.54;98584.30;67774;1278;1016424;-68
2023/09/13 04:53:00;;;;;;;34.10;18.20;;;;;;;21.88;57.20;98585.42;67723;1278;1016123;-67
2023/09/13 04:56:02;;;;;;;;;;;;;;;21.88;57.40;98584.27;67794;1278;1016431;-66
2023/09/13 04:59:05;;;;;;;36.20;21.50;;;;;;;21.87;57.93;98583.55;67830;1278;1016382;-65
2023/09/13 05:02:08;;;;;;;37.80;21.10;;;;;;;21.98;57.49;98585.00;67762;1278;1016265;-65
2023/09/13 05:05:10;;;;;;;;;;;;;;;22.18;57.27;98583.02;67768;1278;1016450;-66
2023/09/13 05:08:14;;;;;;;34.60;17.80;;;;;;;22.17;57.17;98583.33;67779;1278;1016817;-66
2023/09/13 05:11:16;;;;;;;31.60;18.70;;;;;;;22.32;56.92;98585.29;67705;1278;1015993;-67
2023/09/13 05:14:19;;;;;;;;;;;;;;;22.49;57.12;98585.42;67824;1278;1016385;-66
2023/09/13 05:17:22;;;;;;;45.80;24.90;;;;;;;22.77;57.18;98582.73;67820;1278;1016200;-67
2023/09/13 05:20:26;;;;;;;42.60;24.30;;;;;;;23.04;57.02;98579.05;67741;1255;1016276;-64
2023/09/13 05:23:29;;;;;;;40.60;24.20;;;;;;;23.26;57.06;98582.50;67835;1278;1016152;-67
2023/09/13 05:26:32;;;;;;;44.10;23.60;;;;;;;23.39;57.31;98579.61;67839;1278;1016404;-66
2023/09/13 05:29:34;;;;;;;;;;;;;;;23.74;57.30;98583.80;67769;1278;1016398;-65
2023/09/13 05:32:37;;;;;;;45.10;27.50;;;;;;;24.13;57.09;98583.64;67763;1278;1016262;-66
2023/09/13 05:35:39;;;;;;;43.60;26.50;;;;;;;24.41;56.95;98580.43;67819;1278;1016224;-66
2023/09/13 05:38:41;;;;;;;;;;;;;;;24.67;56.71;98579.00;67821;1278;1016215;-66
2023/09/13 05:41:45;;;;;;;45.40;26.50;;;;;;;24.99;56.67;98581.13;67791;1278;1016323;-67
2023/09/13 05:44:47;;;;;;;46.20;26.40;;;;;;;25.24;56.38;98578.61;67761;1278;1016342;-66
2023/09/13 05:47:50;;;;;;;47.90;27.30;;;;;;;25.50;55.95;98578.88;67786;1278;1017027;-66
2023/09/13 05:50:52;;;;;;;44.50;24.70;;;;;;;25.76;55.51;98580.23;67793;1278;1016345;-66
2023/09/13 05:53:55;;;;;;;45.70;26.70;;;;;;;26.04;55.19;98581.18;67753;1278;1016439;-66
2023/09/13 05:56:57;;;;;;;43.90;26.00;;;;;;;26.31;54.59;98580.23;67773;1278;1016691;-67
2023/09/13 05:59:59;;;;;;;41.70;25.50;;;;;;;26.45;54.37;98581.56;67828;1256;1015858;-67
2023/09/13 06:03:02;;;;;;;47.00;26.50;;;;;;;26.66;54.22;98579.73;67809;1278;1016437;-67
2023/09/13 06:06:04;;;;;;;44.20;26.20;;;;;;;26.83;54.20;98583.55;67762;1278;1016303;-67
2023/09/13 06:09:07;;;;;;;44.00;26.40;;;;;;;27.04;54.06;98583.65;67614;1278;1272280;-67
2023/09/13 06:12:09;;;;;;;48.60;26.30;;;;;;;27.28;53.80;98585.08;67796;1278;1016498;-67
2023/09/13 06:15:12;;;;;;;44.20;27.40;;;;;;;27.45;53.68;98593.11;67816;1278;1016409;-66
2023/09/13 06:18:14;;;;;;;47.30;26.20;;;;;;;27.68;53.38;98590.15;67767;1278;1016027;-67
2023/09/13 06:21:17;;;;;;;45.50;26.20;;;;;;;27.92;52.74;98592.95;67773;1278;1016478;-66
2023/09/13 06:24:19;;;;;;;45.30;26.60;;;;;;;28.12;52.29;98593.83;67810;1278;1016830;-66
2023/09/13 06:27:22;;;;;;;43.70;26.60;;;;;;;28.18;52.01;98585.44;67806;1278;1018653;-66
2023/09/13 06:30:24;;;;;;;40.20;24.90;;;;;;;28.24;52.15;98588.80;67796;1278;1016468;-66
2023/09/13 06:33:26;;;;;;;42.60;24.40;;;;;;;28.57;52.06;98592.63;67768;1278;1016289;-67
2023/09/13 06:36:29;;;;;;;39.80;25.20;;;;;;;28.95;51.73;98595.57;67762;1278;1016446;-67
2023/09/13 06:39:32;;;;;;;40.70;24.50;;;;;;;29.17;51.33;98594.95;67811;1278;1018116;-66
2023/09/13 06:42:34;;;;;;;42.00;24.10;;;;;;;29.38;51.32;98599.21;67745;1278;1016378;-66
2023/09/13 06:45:37;;;;;;;41.10;24.10;;;;;;;29.58;50.86;98596.29;67795;1278;1016177;-66
2023/09/13 06:48:39;;;;;;;41.20;23.60;;;;;;;29.87;49.75;98594.77;67766;1278;1016086;-67
2023/09/13 06:51:41;;;;;;;37.20;22.60;;;;;;;30.10;49.84;98593.40;67793;1278;1016128;-66
2023/09/13 06:54:44;;;;;;;39.20;22.80;;;;;;;30.46;49.40;98600.71;67766;1278;1016475;-67
2023/09/13 06:57:48;;;;;;;39.90;23.00;;;;;;;30.68;48.69;98601.96;67761;1278;1016046;-66
2023/09/13 07:00:51;;;;;;;40.70;22.50;;;;;;;30.87;48.28;98603.59;67766;1278;1016483;-66
2023/09/13 07:03:53;;;;;;;38.20;23.00;;;;;;;31.17;48.06;98604.70;67797;1278;1015959;-66
2023/09/13 07:06:55;;;;;;;36.70;22.50;;;;;;;31.37;47.83;98606.69;67797;1278;1016286;-66
2023/09/13 07:09:58;;;;;;;37.80;22.60;;;;;;;31.64;47.68;98607.13;67840;1278;1018605;-66
2023/09/13 07:13:02;;;;;;;41.40;23.10;;;;;;;31.76;47.04;98613.27;67824;1278;1016474;-67
2023/09/13 07:16:05;;;;;;;35.70;22.50;;;;;;;31.89;46.75;98607.73;67773;1278;1016553;-65
2023/09/13 07:19:07;;;;;;;36.50;21.60;;;;;;;32.09;46.32;98608.48;67747;1278;1016461;-66
2023/09/13 07:22:10;;;;;;;38.70;22.30;;;;;;;32.32;46.24;98609.46;67779;1278;1016362;-66
2023/09/13 07:25:12;;;;;;;37.70;22.70;;;;;;;32.57;45.80;98619.58;67759;1278;1016725;-67
2023/09/13 07:28:15;;;;;;;41.40;23.00;;;;;;;32.72;45.41;98619.11;67790;1278;1016362;-66
2023/09/13 07:31:17;;;;;;;35.60;21.50;;;;;;;32.85;45.54;98618.69;67779;1278;1016226;-67
2023/09/13 07:34:20;;;;;;;35.30;20.80;;;;;;;33.10;45.08;98612.77;67685;1278;1016050;-66
2023/09/13 07:37:23;;;;;;;34.80;20.50;;;;;;;33.30;44.52;98612.38;67813;1278;1016466;-67
2023/09/13 07:40:25;;;;;;;37.00;19.70;;;;;;;33.51;44.30;98608.67;67753;1278;1016762;-65
2023/09/13 07:43:28;;;;;;;33.80;18.90;;;;;;;33.75;43.67;98608.39;67777;1278;1016763;-66
2023/09/13 07:46:30;;;;;;;32.50;16.90;;;;;;;33.82;43.17;98610.11;67787;1278;1016466;-66
2023/09/13 07:49:33;;;;;;;30.50;15.90;;;;;;;33.91;42.66;98609.98;67742;1278;1016473;-67
2023/09/13 07:52:36;;;;;;;30.50;16.50;;;;;;;34.13;42.33;98617.27;67745;1278;1016372;-64
2023/09/13 07:55:39;;;;;;;31.00;15.90;;;;;;;34.24;41.89;98618.19;67762;1278;1016457;-66
2023/09/13 07:58:41;;;;;;;32.10;16.40;;;;;;;34.47;41.41;98620.80;67752;1278;1016262;-66
2023/09/13 08:01:44;;;;;;;31.90;15.80;;;;;;;34.56;41.33;98616.32;67786;1278;1017473;-65
2023/09/13 08:04:49;;;;;;;32.50;16.40;;;;;;;34.70;40.91;98615.80;67787;1278;1016208;-65
2023/09/13 08:07:52;;;;;;;32.00;16.00;;;;;;;34.87;40.03;98615.38;67774;1278;1016485;-66
2023/09/13 08:10:54;;;;;;;33.00;15.60;;;;;;;35.18;40.40;98614.23;67772;1278;1016585;-66
2023/09/13 08:13:57;;;;;;;31.70;16.00;;;;;;;35.06;39.92;98615.44;67797;1257;1016362;-66
2023/09/13 08:16:59;;;;;;;34.20;15.40;;;;;;;35.20;39.72;98611.84;67745;1278;1016405;-66
2023/09/13 08:20:04;;;;;;;29.50;14.60;;;;;;;35.43;39.64;98608.33;67717;1278;1016456;-66
2023/09/13 08:23:07;;;;;;;27.20;14.50;;;;;;;35.58;39.45;98608.45;67759;1278;1016408;-65
2023/09/13 08:26:11;;;;;;;30.20;15.00;;;;;;;35.79;38.87;98608.42;67738;1278;1016381;-66
2023/09/13 08:29:13;;;;;;;30.20;14.60;;;;;;;35.88;38.03;98607.17;67761;1278;1016093;-66
2023/09/13 08:32:16;;;;;;;28.60;14.80;;;;;;;36.03;37.79;98609.97;67737;1278;1016466;-64
2023/09/13 08:35:18;;;;;;;28.80;14.30;;;;;;;36.18;37.18;98610.20;67774;1278;1016490;-66
2023/09/13 08:38:21;;;;;;;28.00;13.40;;;;;;;36.37;37.28;98603.02;67784;1278;1017168;-66
2023/09/13 08:41:23;;;;;;;29.10;14.30;;;;;;;36.51;37.20;98602.86;67754;1278;1016104;-66
2023/09/13 08:44:26;;;;;;;29.50;14.50;;;;;;;36.66;36.80;98600.91;67763;1278;1016502;-66
2023/09/13 08:47:29;;;;;;;30.70;13.30;;;;;;;36.85;36.57;98593.32;67738;1278;1016455;-66
2023/09/13 08:50:34;;;;;;;30.10;13.80;;;;;;;36.98;36.20;98597.59;67788;1278;1016461;-66
2023/09/13 08:53:36;;;;;;;27.90;13.50;;;;;;;37.08;35.89;98594.42;67727;1278;1015901;-64
2023/09/13 08:56:39;;;;;;;27.40;13.00;;;;;;;37.21;35.84;98586.71;67759;1278;1017170;-66
2023/09/13 08:59:41;;;;;;;31.90;13.20;;;;;;;37.27;35.20;98588.33;67749;1278;1016172;-66
2023/09/13 09:02:43;;;;;;;28.80;12.80;;;;;;;37.25;34.83;98586.02;67793;1278;1016710;-65
2023/09/13 09:05:46;;;;;;;24.80;12.40;;;;;;;37.19;34.61;98583.71;67743;1278;1016255;-63
2023/09/13 09:08:49;;;;;;;27.40;12.60;;;;;;;37.03;34.85;98586.56;67790;1278;1016548;-65
2023/09/13 09:11:51;;;;;;;30.00;13.10;;;;;;;37.19;34.71;98588.30;67717;1278;1016473;-66
2023/09/13 09:14:54;;;;;;;27.30;12.50;;;;;;;37.41;35.35;98587.27;67730;1278;1016508;-66
2023/09/13 09:17:56;;;;;;;30.20;12.80;;;;;;;37.72;34.41;98580.43;67762;1278;1016932;-66
2023/09/13 09:20:59;;;;;;;30.70;13.50;;;;;;;37.90;33.59;98580.11;67794;1278;1016256;-65
2023/09/13 09:24:02;;;;;;;27.60;12.80;;;;;;;37.94;33.96;98579.55;67773;1278;1016767;-65
2023/09/13 09:27:04;;;;;;;28.90;13.80;;;;;;;38.07;34.16;98579.50;67765;1278;1017929;-66
2023/09/13 09:30:07;;;;;;;33.30;13.30;;;;;;;38.30;33.51;98583.86;67739;1278;1017160;-65
2023/09/13 09:33:09;;;;;;;26.90;12.50;;;;;;;38.45;33.13;98584.20;67767;1278;1016415;-65
2023/09/13 09:36:13;;;;;;;27.70;12.80;;;;;;;38.46;33.13;98583.86;67719;1278;1016346;-66
2023/09/13 09:39:15;;;;;;;26.30;12.60;;;;;;;38.56;33.04;98584.36;67773;1278;1016489;-66
2023/09/13 09:42:18;;;;;;;27.10;12.10;;;;;;;38.68;32.42;98577.23;67806;1278;1016418;-66
2023/09/13 09:45:20;;;;;;;28.90;11.10;;;;;;;38.80;32.46;98577.20;67753;1278;1016712;-66
2023/09/13 09:48:22;;;;;;;31.70;12.10;;;;;;;38.88;32.04;98576.44;67731;1278;1016490;-65
2023/09/13 09:51:25;;;;;;;26.60;11.60;;;;;;;38.94;32.25;98580.38;67764;1278;1016793;-66
2023/09/13 09:54:27;;;;;;;28.60;11.10;;;;;;;39.13;32.06;98582.33;67802;1278;1016247;-66
2023/09/13 09:57:30;;;;;;;27.20;11.10;;;;;;;39.23;31.70;98578.64;67805;1278;1016672;-66
2023/09/13 10:00:32;;;;;;;29.00;12.40;;;;;;;39.26;31.55;98576.73;67739;1278;1016420;-66
2023/09/13 10:03:34;;;;;;;25.20;12.50;;;;;;;39.38;31.38;98573.33;67742;1278;1016499;-66
2023/09/13 10:06:37;;;;;;;26.60;13.10;;;;;;;39.42;31.32;98566.56;67770;1278;1017981;-66
2023/09/13 10:09:39;;;;;;;26.50;12.60;;;;;;;39.57;31.20;98572.65;67791;1278;1015916;-66
2023/09/13 10:12:42;;;;;;;26.70;12.20;;;;;;;39.67;31.20;98569.82;67762;1278;1017232;-66
2023/09/13 10:15:45;;;;;;;25.00;11.20;;;;;;;39.91;30.24;98571.13;67731;1278;1016529;-65
2023/09/13 10:18:48;;;;;;;25.80;11.40;;;;;;;39.78;30.33;98568.31;67742;1278;1016722;-66
2023/09/13 10:21:51;;;;;;;25.70;11.30;;;;;;;39.92;30.25;98570.52;67748;1278;1016874;-65
2023/09/13 10:24:53;;;;;;;25.60;10.80;;;;;;;39.99;29.52;98564.12;67788;1278;1016630;-65
2023/09/13 10:27:56;;;;;;;26.80;11.40;;;;;;;40.08;30.22;98558.85;67806;1278;1019454;-65
2023/09/13 10:30:58;;;;;;;26.60;10.60;;;;;;;40.27;29.73;98560.21;67802;1278;1016153;-65
2023/09/13 10:34:01;;;;;;;23.00;10.20;;;;;;;40.23;29.90;98556.58;67754;1278;1018606;-66
2023/09/13 10:37:03;;;;;;;23.00;10.20;;;;;;;40.32;29.49;98553.98;67722;1278;1016404;-65
2023/09/13 10:40:10;;;;;;;25.10;9.50;;;;;;;40.51;29.27;98548.56;67753;1278;1016233;-66
2023/09/13 10:43:13;;;;;;;24.10;10.10;;;;;;;40.57;29.51;98547.60;67774;1278;1016511;-65
2023/09/13 10:46:15;;;;;;;23.70;9.80;;;;;;;40.41;28.42;98552.69;67746;1278;1016474;-66
2023/09/13 10:49:18;;;;;;;24.80;9.90;;;;;;;40.25;28.72;98559.84;67783;1278;1018847;-65
2023/09/13 10:52:20;;;;;;;24.20;9.50;;;;;;;40.06;28.95;98559.94;67767;1278;1016595;-65
2023/09/13 10:55:23;;;;;;;21.70;9.50;;;;;;;39.97;29.18;98552.89;67703;1278;1016069;-65
2023/09/13 10:58:25;;;;;;;23.80;8.80;;;;;;;40.17;28.29;98550.89;67756;1278;1016245;-65
2023/09/13 11:01:28;;;;;;;23.60;9.80;;;;;;;40.15;27.67;98556.09;67745;1278;1016425;-65
2023/09/13 11:04:31;;;;;;;24.20;8.90;;;;;;;40.01;28.04;98556.13;67751;1278;1017401;-65
2023/09/13 11:07:33;;;;;;;22.80;8.70;;;;;;;40.25;27.43;98557.65;67730;1278;1016497;-65
2023/09/13 11:10:36;;;;;;;20.70;7.60;;;;;;;39.64;26.66;98553.15;67735;1278;1016474;-66
2023/09/13 11:13:38;;;;;;;21.20;8.20;;;;;;;39.54;27.54;98552.60;67773;1278;1016486;-65
2023/09/13 11:16:41;;;;;;;22.60;8.20;;;;;;;39.90;28.19;98553.35;67780;1278;1016532;-65
2023/09/13 11:19:44;;;;;;;21.80;8.90;;;;;;;40.06;27.77;98548.73;67777;1278;1016093;-66
2023/09/13 11:22:47;;;;;;;22.40;8.70;;;;;;;39.58;26.66;98548.33;67794;1278;1016491;-65
2023/09/13 11:25:49;;;;;;;22.50;8.30;;;;;;;39.26;27.56;98545.20;67788;1278;1016139;-65
2023/09/13 11:28:54;;;;;;;23.70;8.20;;;;;;;39.67;27.49;98542.48;67716;1278;1018958;-65
2023/09/13 11:31:56;;;;;;;24.10;8.20;;;;;;;40.05;27.33;98540.01;67721;1278;1016488;-65
2023/09/13 11:34:59;;;;;;;26.00;8.60;;;;;;;39.98;26.01;98538.36;67767;1273;1016480;-65
2023/09/13 11:38:01;;;;;;;22.40;7.40;;;;;;;39.13;25.92;98540.50;67789;1278;1018046;-64
2023/09/13 11:41:04;;;;;;;23.20;7.60;;;;;;;38.74;25.97;98539.60;67753;1278;1016407;-64
2023/09/13 11:44:06;;;;;;;24.20;8.00;;;;;;;38.93;26.13;98536.80;67768;1278;1016497;-61
2023/09/13 11:47:08;;;;;;;21.80;7.90;;;;;;;39.39;25.82;98539.98;67810;1278;1019321;-62
2023/09/13 11:50:12;;;;;;;24.00;7.80;;;;;;;39.67;25.36;98536.07;67815;1278;1016831;-65
2023/09/13 11:53:18;;;;;;;24.30;8.30;;;;;;;39.83;25.78;98535.32;67762;1278;1016577;-65
2023/09/13 11:56:20;;;;;;;21.30;7.20;;;;;;;39.99;25.65;98537.11;67736;1278;1016320;-64
2023/09/13 11:59:23;;;;;;;22.80;7.00;;;;;;;40.34;25.18;98539.01;67793;1278;1016175;-65
2023/09/13 12:02:26;;;;;;;23.70;7.20;;;;;;;40.42;24.99;98540.66;67760;1278;1016894;-64
2023/09/13 12:05:28;;;;;;;22.20;7.60;;;;;;;40.49;25.38;98541.38;67731;1278;1016484;-64
2023/09/13 12:08:31;;;;;;;18.00;6.50;;;;;;;40.75;24.87;98542.81;67802;1278;1016625;-66
2023/09/13 12:11:33;;;;;;;18.70;6.20;;;;;;;40.97;24.52;98543.56;67783;1278;1016677;-65
2023/09/13 12:14:36;;;;;;;18.30;6.40;;;;;;;41.27;23.96;98537.98;67754;1278;1016545;-63
2023/09/13 12:17:38;;;;;;;23.00;7.00;;;;;;;41.25;23.83;98538.39;67776;1278;1016439;-62
2023/09/13 12:20:41;;;;;;;20.80;6.70;;;;;;;41.35;23.34;98540.65;67787;1278;1016591;-64
2023/09/13 12:23:43;;;;;;;21.40;7.00;;;;;;;41.24;23.28;98545.80;67790;1278;1016712;-65
2023/09/13 12:26:45;;;;;;;18.10;6.70;;;;;;;40.99;23.08;98545.56;67811;1278;1017468;-65
2023/09/13 12:29:48;;;;;;;19.50;7.40;;;;;;;40.41;23.82;98545.35;67775;1278;1016447;-65
2023/09/13 12:32:51;;;;;;;19.80;7.20;;;;;;;40.10;24.23;98548.80;67747;1278;1016389;-65
2023/09/13 12:35:53;;;;;;;18.90;7.00;;;;;;;40.30;24.07;98545.55;67804;1278;1016464;-66
2023/09/13 12:38:58;;;;;;;21.90;7.50;;;;;;;40.66;24.48;98547.56;67848;1278;1016535;-66
2023/09/13 12:42:01;;;;;;;19.20;7.10;;;;;;;40.58;23.44;98544.45;67757;1278;1016506;-66
2023/09/13 12:45:03;;;;;;;20.60;7.30;;;;;;;40.03;24.33;98548.86;67811;1278;1016573;-64
2023/09/13 12:48:06;;;;;;;23.70;7.70;;;;;;;39.59;24.14;98553.20;67798;1278;1020180;-65
2023/09/13 12:51:08;;;;;;;21.40;7.60;;;;;;;39.03;24.31;98547.64;67767;1278;1016494;-64
2023/09/13 12:54:12;;;;;;;19.00;7.00;;;;;;;38.98;25.19;98542.15;67770;1278;1016432;-65
2023/09/13 12:57:15;;;;;;;21.10;7.60;;;;;;;39.53;24.99;98541.86;67795;1278;1016999;-65
2023/09/13 13:00:17;;;;;;;21.80;7.50;;;;;;;40.06;24.32;98540.44;67817;1278;1016423;-66
2023/09/13 13:03:20;;;;;;;21.70;7.50;;;;;;;40.35;25.50;98533.08;67794;1278;1016686;-64
2023/09/13 13:06:22;;;;;;;21.30;7.80;;;;;;;40.96;24.74;98535.27;67748;1278;1018979;-65
2023/09/13 13:09:25;;;;;;;20.50;7.50;;;;;;;41.29;24.74;98532.40;67769;1278;1016950;-66
2023/09/13 13:12:27;;;;;;;20.90;7.40;;;;;;;40.77;23.83;98535.69;67770;1278;1016312;-66
2023/09/13 13:15:29;;;;;;;21.40;7.10;;;;;;;40.28;23.92;98529.05;67825;1278;1016465;-65
2023/09/13 13:18:32;;;;;;;20.20;7.20;;;;;;;39.56;23.91;98524.92;67762;1278;1018590;-65
2023/09/13 13:21:34;;;;;;;21.30;7.70;;;;;;;39.65;25.74;98519.71;67777;1278;1016172;-66
2023/09/13 13:24:37;;;;;;;23.00;7.30;;;;;;;39.94;25.19;98517.52;67756;1278;1016497;-66
2023/09/13 13:27:39;;;;;;;20.00;7.30;;;;;;;40.08;25.28;98510.80;67812;1278;1016484;-65
2023/09/13 13:30:42;;;;;;;22.70;7.60;;;;;;;40.32;25.23;98502.17;67803;1278;1016963;-66
2023/09/13 13:33:44;;;;;;;18.60;7.00;;;;;;;40.13;24.71;98505.80;67782;1278;1016421;-66
2023/09/13 13:36:47;;;;;;;20.20;7.70;;;;;;;39.35;25.41;98505.90;67663;1278;1016252;-66
2023/09/13 13:39:50;;;;;;;19.80;7.80;;;;;;;39.34;26.17;98499.05;67814;1278;1016503;-65
2023/09/13 13:42:52;;;;;;;20.00;7.70;;;;;;;39.40;25.04;98496.13;67771;1278;1016165;-66
2023/09/13 13:45:55;;;;;;;21.60;7.60;;;;;;;39.59;25.42;98495.09;67758;1278;1016892;-65
2023/09/13 13:48:58;;;;;;;21.70;7.80;;;;;;;39.84;25.52;98485.31;67761;1278;1016557;-65
2023/09/13 13:52:00;;;;;;;21.00;7.80;;;;;;;40.11;25.56;98479.04;67784;1278;1016437;-65
2023/09/13 13:55:03;;;;;;;20.30;7.70;;;;;;;40.49;25.33;98470.95;67751;1278;1016446;-65